createdAt,value
2017-08-20T00:01:03.059Z,97.60
2017-08-20T00:03:32.182Z,97.80
2017-08-20T00:06:01.602Z,97.50
2017-08-20T00:08:29.893Z,97.00
2017-08-20T00:10:59.399Z,97.00
2017-08-20T00:13:28.451Z,97.00
2017-08-20T00:15:57.500Z,96.50
2017-08-20T00:18:25.838Z,96.50
2017-08-20T00:20:54.121Z,96.30
2017-08-20T00:23:22.403Z,96.40
2017-08-20T00:25:51.122Z,96.20
2017-08-20T00:28:20.544Z,96.30
2017-08-20T00:33:18.601Z,96.00
2017-08-20T00:35:46.888Z,95.90
2017-08-20T00:38:15.584Z,96.00
2017-08-20T00:40:45.430Z,95.90
2017-08-20T00:43:13.750Z,95.90
2017-08-20T00:45:43.558Z,96.00
2017-08-20T00:50:41.837Z,95.80
2017-08-20T00:55:40.538Z,95.80
2017-08-20T00:58:09.210Z,96.00
2017-08-20T01:00:37.486Z,96.20
2017-08-20T01:03:06.227Z,96.90
2017-08-20T01:05:35.635Z,96.80
2017-08-20T01:08:03.918Z,97.60
2017-08-20T01:13:01.783Z,96.70
2017-08-20T01:15:31.224Z,96.80
2017-08-20T01:18:00.328Z,96.90
2017-08-20T01:20:28.610Z,96.70
2017-08-20T01:22:56.883Z,96.50
2017-08-20T01:27:55.151Z,96.90
2017-08-20T01:32:53.011Z,96.80
2017-08-20T01:35:22.067Z,96.60
2017-08-20T01:37:51.108Z,96.60
2017-08-20T01:40:19.430Z,96.50
2017-08-20T01:42:47.710Z,96.30
2017-08-20T01:45:17.502Z,96.30
2017-08-20T01:47:45.866Z,96.10
2017-08-20T01:50:14.183Z,97.00
2017-08-20T01:52:43.616Z,96.30
2017-08-20T01:55:12.020Z,96.70
2017-08-20T01:57:40.708Z,96.70
2017-08-20T02:00:08.999Z,97.00
2017-08-20T02:02:37.335Z,97.70
2017-08-20T02:05:06.742Z,98.00
2017-08-20T02:07:35.026Z,97.80
2017-08-20T02:10:03.359Z,98.10
2017-08-20T02:15:01.894Z,97.40
2017-08-20T02:20:00.903Z,96.60
2017-08-20T02:22:29.191Z,97.40
2017-08-20T02:29:58.131Z,97.50
2017-08-20T02:32:26.500Z,97.60
2017-08-20T02:34:55.921Z,97.40
2017-08-20T02:37:24.201Z,97.60
2017-08-20T02:39:52.548Z,97.20
2017-08-20T02:42:20.818Z,97.30
2017-08-20T02:47:19.431Z,97.30
2017-08-20T02:49:48.846Z,97.30
2017-08-20T02:52:17.117Z,97.60
2017-08-20T02:54:45.468Z,97.60
2017-08-20T02:57:14.901Z,97.60
2017-08-20T02:59:44.340Z,97.70
2017-08-20T03:02:13.099Z,97.70
2017-08-20T03:04:42.894Z,97.70
2017-08-20T03:07:11.208Z,97.70
2017-08-20T03:09:39.948Z,98.00
2017-08-20T03:12:08.231Z,98.00
2017-08-20T03:14:37.274Z,98.40
2017-08-20T03:17:05.979Z,98.30
2017-08-20T03:19:34.259Z,98.30
2017-08-20T03:22:02.539Z,98.30
2017-08-20T03:24:30.872Z,98.40
2017-08-20T03:27:00.308Z,99.50
2017-08-20T03:29:28.595Z,99.90
2017-08-20T03:31:56.923Z,99.90
2017-08-20T03:34:25.200Z,99.40
2017-08-20T03:36:53.476Z,99.70
2017-08-20T03:39:21.788Z,99.90
2017-08-20T03:41:50.831Z,99.90
2017-08-20T03:44:19.106Z,99.50
2017-08-20T03:46:48.978Z,99.90
2017-08-20T03:51:47.162Z,99.60
2017-08-20T03:54:15.523Z,99.70
2017-08-20T03:56:43.815Z,99.90
2017-08-20T03:59:12.102Z,99.90
2017-08-20T04:01:40.489Z,99.90
2017-08-20T04:04:08.766Z,99.90
2017-08-20T04:06:38.183Z,99.90
2017-08-20T04:09:06.514Z,99.80
2017-08-20T04:11:34.790Z,99.90
2017-08-20T04:14:04.024Z,99.90
2017-08-20T04:16:33.119Z,99.90
2017-08-20T04:21:32.522Z,99.90
2017-08-20T04:24:00.892Z,99.90
2017-08-20T04:26:29.964Z,99.90
2017-08-20T04:28:59.400Z,99.90
2017-08-20T04:31:28.879Z,99.90
2017-08-20T04:33:57.163Z,99.90
2017-08-20T04:36:25.443Z,99.90
2017-08-20T04:38:53.770Z,99.90
2017-08-20T04:43:51.552Z,99.90
2017-08-20T04:46:20.270Z,99.90
2017-08-20T04:48:48.555Z,99.90
2017-08-20T04:51:16.849Z,99.90
2017-08-20T04:53:46.692Z,99.90
2017-08-20T04:58:44.896Z,99.90
2017-08-20T05:01:13.268Z,99.90
2017-08-20T05:03:41.566Z,99.90
2017-08-20T05:06:11.106Z,99.90
2017-08-20T05:08:40.598Z,99.90
2017-08-20T05:11:08.876Z,99.90
2017-08-20T05:13:37.154Z,99.90
2017-08-20T05:16:05.487Z,99.90
2017-08-20T05:18:33.768Z,99.90
2017-08-20T05:21:03.587Z,99.90
2017-08-20T05:23:31.948Z,99.90
2017-08-20T05:26:00.227Z,99.90
2017-08-20T05:28:29.647Z,99.90
2017-08-20T05:30:57.999Z,99.90
2017-08-20T05:33:26.279Z,99.90
2017-08-20T05:35:54.555Z,99.90
2017-08-20T05:38:23.295Z,99.90
2017-08-20T05:40:51.975Z,99.90
2017-08-20T05:43:20.255Z,99.90
2017-08-20T05:48:18.494Z,99.90
2017-08-20T05:50:46.788Z,99.90
2017-08-20T05:53:15.120Z,99.90
2017-08-20T05:58:13.717Z,99.90
2017-08-20T06:00:42.843Z,99.90
2017-08-20T06:03:11.139Z,99.90
2017-08-20T06:05:42.024Z,99.90
2017-08-20T06:08:10.355Z,99.90
2017-08-20T06:10:39.798Z,99.90
2017-08-20T06:13:08.108Z,99.90
2017-08-20T06:18:06.342Z,99.90
2017-08-20T06:20:34.624Z,99.90
2017-08-20T06:23:02.966Z,99.90
2017-08-20T06:25:31.276Z,99.90
2017-08-20T06:28:00.350Z,99.90
2017-08-20T06:30:29.465Z,99.90
2017-08-20T06:32:58.512Z,99.90
2017-08-20T06:35:26.803Z,99.90
2017-08-20T06:37:55.154Z,99.90
2017-08-20T06:40:23.419Z,99.90
2017-08-20T06:42:51.700Z,99.90
2017-08-20T06:45:20.011Z,99.90
2017-08-20T06:47:49.799Z,99.90
2017-08-20T06:50:19.219Z,99.90
2017-08-20T06:55:17.810Z,99.80
2017-08-20T06:57:46.502Z,99.90
2017-08-20T07:00:14.835Z,99.90
2017-08-20T07:02:43.901Z,99.90
2017-08-20T07:05:12.194Z,99.90
2017-08-20T07:07:40.961Z,99.90
2017-08-20T07:10:10.003Z,99.80
2017-08-20T07:12:38.278Z,99.90
2017-08-20T07:15:06.626Z,99.60
2017-08-20T07:17:35.050Z,99.40
2017-08-20T07:22:33.251Z,99.70
2017-08-20T07:27:31.055Z,99.30
2017-08-20T07:29:59.404Z,98.80
2017-08-20T07:32:27.683Z,98.60
2017-08-20T07:34:55.974Z,97.80
2017-08-20T07:37:25.802Z,97.10
2017-08-20T07:39:54.086Z,96.90
2017-08-20T07:42:22.366Z,96.50
2017-08-20T07:44:50.699Z,96.30
2017-08-20T07:47:19.747Z,95.80
2017-08-20T07:49:48.033Z,95.90
2017-08-20T07:52:17.155Z,95.60
2017-08-20T07:59:48.076Z,95.40
2017-08-20T08:02:16.374Z,96.70
2017-08-20T08:04:44.718Z,96.50
2017-08-20T08:07:13.798Z,97.20
2017-08-20T08:09:42.100Z,95.90
2017-08-20T08:12:11.623Z,97.30
2017-08-20T08:14:39.906Z,96.00
2017-08-20T08:17:08.192Z,95.70
2017-08-20T08:19:38.263Z,95.00
2017-08-20T08:22:06.541Z,96.60
2017-08-20T08:24:35.954Z,95.00
2017-08-20T08:27:05.452Z,94.50
2017-08-20T08:29:33.732Z,94.20
2017-08-20T08:32:02.776Z,94.20
2017-08-20T08:37:01.750Z,94.80
2017-08-20T08:39:30.816Z,94.00
2017-08-20T08:42:00.326Z,94.90
2017-08-20T08:44:28.602Z,93.30
2017-08-20T08:46:56.879Z,93.70
2017-08-20T08:49:26.166Z,92.80
2017-08-20T08:51:54.443Z,93.00
2017-08-20T08:54:22.723Z,92.80
2017-08-20T08:59:22.071Z,91.00
2017-08-20T09:04:19.944Z,90.30
2017-08-20T09:06:48.222Z,88.90
2017-08-20T09:09:16.516Z,90.40
2017-08-20T09:14:14.794Z,90.00
2017-08-20T09:16:43.857Z,90.50
2017-08-20T09:19:12.221Z,90.20
2017-08-20T09:21:42.018Z,90.40
2017-08-20T09:29:10.154Z,86.80
2017-08-20T09:31:38.428Z,84.70
2017-08-20T09:34:06.747Z,84.50
2017-08-20T09:36:35.030Z,84.60
2017-08-20T09:39:03.312Z,84.50
2017-08-20T09:46:31.811Z,82.00
2017-08-20T09:49:00.181Z,82.60
2017-08-20T09:51:29.239Z,81.00
2017-08-20T09:53:58.660Z,83.40
2017-08-20T09:56:27.742Z,84.20
2017-08-20T09:58:56.019Z,83.70
2017-08-20T10:01:24.302Z,84.20
2017-08-20T10:03:53.773Z,85.40
2017-08-20T10:06:22.052Z,83.80
2017-08-20T10:08:50.326Z,84.00
2017-08-20T10:11:18.677Z,82.80
2017-08-20T10:13:46.956Z,80.80
2017-08-20T10:16:16.383Z,81.80
2017-08-20T10:18:45.883Z,81.10
2017-08-20T10:21:14.951Z,77.20
2017-08-20T10:23:43.247Z,81.40
2017-08-20T10:26:11.608Z,82.50
2017-08-20T10:28:39.892Z,82.10
2017-08-20T10:31:08.167Z,81.00
2017-08-20T10:33:37.259Z,80.50
2017-08-20T10:36:05.538Z,77.10
2017-08-20T10:38:34.578Z,78.70
2017-08-20T10:41:03.679Z,75.70
2017-08-20T10:43:31.974Z,78.40
2017-08-20T10:46:00.248Z,76.90
2017-08-20T10:48:28.592Z,77.00
2017-08-20T10:50:56.872Z,75.60
2017-08-20T10:53:25.913Z,76.30
2017-08-20T10:55:54.639Z,72.90
2017-08-20T10:58:22.919Z,75.90
2017-08-20T11:00:51.187Z,75.80
2017-08-20T11:03:21.594Z,74.70
2017-08-20T11:05:51.013Z,72.30
2017-08-20T11:08:19.286Z,72.70
2017-08-20T11:13:17.874Z,76.40
2017-08-20T11:15:46.190Z,74.90
2017-08-20T11:18:14.539Z,76.40
2017-08-20T11:20:43.215Z,77.70
2017-08-20T11:23:12.655Z,76.00
2017-08-20T11:25:41.766Z,70.70
2017-08-20T11:28:10.047Z,70.50
2017-08-20T11:30:38.350Z,70.20
2017-08-20T11:35:36.208Z,68.00
2017-08-20T11:38:04.487Z,68.60
2017-08-20T11:40:32.835Z,70.40
2017-08-20T11:43:01.119Z,68.30
2017-08-20T11:45:29.403Z,67.10
2017-08-20T11:50:27.226Z,66.10
2017-08-20T11:52:55.512Z,66.00
2017-08-20T11:55:23.836Z,68.00
2017-08-20T11:57:52.123Z,69.70
2017-08-20T12:00:21.161Z,68.60
2017-08-20T12:02:49.520Z,69.20
2017-08-20T12:05:19.298Z,69.80
2017-08-20T12:07:47.600Z,71.80
2017-08-20T12:10:15.964Z,70.60
2017-08-20T12:12:44.247Z,71.30
2017-08-20T12:15:12.569Z,73.90
2017-08-20T12:17:42.171Z,74.30
2017-08-20T12:20:14.572Z,73.30
2017-08-20T12:22:44.455Z,72.70
2017-08-20T12:25:12.760Z,73.80
2017-08-20T12:30:11.381Z,70.50
2017-08-20T12:32:41.227Z,69.20
2017-08-20T12:35:09.519Z,67.90
2017-08-20T12:37:37.858Z,73.60
2017-08-20T12:40:06.903Z,69.80
2017-08-20T12:42:35.193Z,68.70
2017-08-20T12:45:03.545Z,69.70
2017-08-20T12:47:31.818Z,73.00
2017-08-20T12:52:29.678Z,71.40
2017-08-20T12:54:59.471Z,73.60
2017-08-20T12:57:27.746Z,74.30
2017-08-20T13:02:26.363Z,75.10
2017-08-20T13:04:54.639Z,74.60
2017-08-20T13:07:22.976Z,74.60
2017-08-20T13:09:51.256Z,75.90
2017-08-20T13:14:50.599Z,76.10
2017-08-20T13:17:20.395Z,78.30
2017-08-20T13:19:48.696Z,79.30
2017-08-20T13:24:47.034Z,82.40
2017-08-20T13:27:16.504Z,80.00
2017-08-20T13:32:15.126Z,80.40
2017-08-20T13:34:43.441Z,81.10
2017-08-20T13:37:11.823Z,78.50
2017-08-20T13:39:40.107Z,79.80
2017-08-20T13:42:08.387Z,80.00
2017-08-20T13:44:38.594Z,80.30
2017-08-20T13:47:08.378Z,79.40
2017-08-20T13:49:37.422Z,78.70
2017-08-20T13:52:06.522Z,77.00
2017-08-20T13:54:34.800Z,75.60
2017-08-20T13:57:03.079Z,76.10
2017-08-20T13:59:32.930Z,76.30
2017-08-20T14:02:01.703Z,77.50
2017-08-20T14:04:30.749Z,77.50
2017-08-20T14:07:00.237Z,76.40
2017-08-20T14:09:29.279Z,76.40
2017-08-20T14:11:57.558Z,76.70
2017-08-20T14:14:27.398Z,78.60
2017-08-20T14:16:55.679Z,80.90
2017-08-20T14:19:23.964Z,77.70
2017-08-20T14:21:52.651Z,77.40
2017-08-20T14:24:21.690Z,77.30
2017-08-20T14:26:49.987Z,80.30
2017-08-20T14:29:19.116Z,78.00
2017-08-20T14:31:48.176Z,78.10
2017-08-20T14:41:45.499Z,78.90
2017-08-20T14:44:14.663Z,79.30
2017-08-20T14:51:42.835Z,79.10
2017-08-20T14:54:11.154Z,79.40
2017-08-20T14:59:09.074Z,80.80
2017-08-20T15:01:38.127Z,81.60
2017-08-20T15:04:07.555Z,80.40
2017-08-20T15:06:36.655Z,80.60
2017-08-20T15:09:05.695Z,82.10
2017-08-20T15:11:34.376Z,80.80
2017-08-20T15:14:02.718Z,80.10
2017-08-20T15:19:00.900Z,80.10
2017-08-20T15:24:00.307Z,78.70
2017-08-20T15:26:28.583Z,80.30
2017-08-20T15:28:58.415Z,79.70
2017-08-20T15:31:26.687Z,80.10
2017-08-20T15:33:55.739Z,78.40
2017-08-20T15:36:25.570Z,79.00
2017-08-20T15:38:54.988Z,79.40
2017-08-20T15:41:23.274Z,78.70
2017-08-20T15:43:51.634Z,78.60
2017-08-20T15:46:20.876Z,78.70
2017-08-20T15:48:49.947Z,77.50
2017-08-20T15:51:18.308Z,78.30
2017-08-20T15:53:46.621Z,79.80
2017-08-20T15:56:16.445Z,78.00
2017-08-20T15:58:44.784Z,77.60
2017-08-20T16:01:13.087Z,76.40
2017-08-20T16:03:42.213Z,78.00
2017-08-20T16:06:11.718Z,78.40
2017-08-20T16:08:40.393Z,78.00
2017-08-20T16:11:08.679Z,79.00
2017-08-20T16:13:37.027Z,79.10
2017-08-20T16:18:35.588Z,79.70
2017-08-20T16:21:04.698Z,79.80
2017-08-20T16:23:33.375Z,78.40
2017-08-20T16:26:03.154Z,80.20
2017-08-20T16:28:34.380Z,79.80
2017-08-20T16:31:03.423Z,79.50
2017-08-20T16:33:31.711Z,79.60
2017-08-20T16:36:00.067Z,79.80
2017-08-20T16:38:28.342Z,80.10
2017-08-20T16:43:26.579Z,77.50
2017-08-20T16:45:54.863Z,78.10
2017-08-20T16:53:22.617Z,78.70
2017-08-20T16:55:50.890Z,77.90
2017-08-20T17:00:48.735Z,79.30
2017-08-20T17:03:17.778Z,80.10
2017-08-20T17:05:46.922Z,78.10
2017-08-20T17:08:15.210Z,78.50
2017-08-20T17:10:43.494Z,78.20
2017-08-20T17:13:11.810Z,80.20
2017-08-20T17:15:40.096Z,77.80
2017-08-20T17:18:08.388Z,79.40
2017-08-20T17:20:37.795Z,78.40
2017-08-20T17:23:06.472Z,79.70
2017-08-20T17:25:36.551Z,80.50
2017-08-20T17:28:04.862Z,80.50
2017-08-20T17:30:33.935Z,80.30
2017-08-20T17:35:32.555Z,79.80
2017-08-20T17:38:02.352Z,81.10
2017-08-20T17:40:31.038Z,81.20
2017-08-20T17:43:00.505Z,81.20
2017-08-20T17:45:28.779Z,81.00
2017-08-20T17:47:57.064Z,82.60
2017-08-20T17:52:54.928Z,82.90
2017-08-20T17:55:23.970Z,82.40
2017-08-20T17:57:52.301Z,81.70
2017-08-20T18:00:20.989Z,81.60
2017-08-20T18:02:50.096Z,81.20
2017-08-20T18:05:18.435Z,81.60
2017-08-20T18:07:46.736Z,81.90
2017-08-20T18:12:46.143Z,83.00
2017-08-20T18:15:15.205Z,83.00
2017-08-20T18:17:44.248Z,83.00
2017-08-20T18:20:12.628Z,82.40
2017-08-20T18:22:42.454Z,81.70
2017-08-20T18:25:10.755Z,82.10
2017-08-20T18:27:39.105Z,83.00
2017-08-20T18:30:08.519Z,83.30
2017-08-20T18:32:36.814Z,83.80
2017-08-20T18:35:06.301Z,84.70
2017-08-20T18:37:35.347Z,85.80
2017-08-20T18:40:03.628Z,86.10
2017-08-20T18:42:32.091Z,85.30
2017-08-20T18:45:00.377Z,86.80
2017-08-20T18:49:59.731Z,86.70
2017-08-20T18:52:28.774Z,87.80
2017-08-20T18:57:28.115Z,88.70
2017-08-20T18:59:56.400Z,88.20
2017-08-20T19:02:26.198Z,88.70
2017-08-20T19:07:24.410Z,89.00
2017-08-20T19:12:22.634Z,90.00
2017-08-20T19:14:50.921Z,89.90
2017-08-20T19:17:19.614Z,89.00
2017-08-20T19:22:17.505Z,88.40
2017-08-20T19:27:15.784Z,88.80
2017-08-20T19:29:44.482Z,88.50
2017-08-20T19:32:13.552Z,88.50
2017-08-20T19:34:41.902Z,89.00
2017-08-20T19:39:40.111Z,90.10
2017-08-20T19:42:08.451Z,89.10
2017-08-20T19:44:37.859Z,87.40
2017-08-20T19:47:06.911Z,89.40
2017-08-20T19:49:35.388Z,89.40
2017-08-20T19:52:04.442Z,88.90
2017-08-20T19:54:32.718Z,90.00
2017-08-20T19:59:30.983Z,90.00
2017-08-20T20:04:29.243Z,90.60
2017-08-20T20:06:57.524Z,90.80
2017-08-20T20:09:25.799Z,91.00
2017-08-20T20:11:54.556Z,90.80
2017-08-20T20:14:23.236Z,91.10
2017-08-20T20:19:21.599Z,91.80
2017-08-20T20:21:49.872Z,91.90
2017-08-20T20:24:18.147Z,92.20
2017-08-20T20:26:48.671Z,91.90
2017-08-20T20:29:18.097Z,92.00
2017-08-20T20:31:47.154Z,92.40
2017-08-20T20:34:16.267Z,92.60
2017-08-20T20:36:44.559Z,92.50
2017-08-20T20:39:12.843Z,92.40
2017-08-20T20:41:41.200Z,93.20
2017-08-20T20:44:09.875Z,93.40
2017-08-20T20:46:39.297Z,92.90
2017-08-20T20:49:07.990Z,93.20
2017-08-20T20:51:37.774Z,93.70
2017-08-20T20:54:06.064Z,93.60
2017-08-20T20:56:34.480Z,93.40
2017-08-20T21:01:32.654Z,93.70
2017-08-20T21:04:01.025Z,94.10
2017-08-20T21:06:29.723Z,94.20
2017-08-20T21:08:58.014Z,94.40
2017-08-20T21:11:26.723Z,94.20
2017-08-20T21:13:55.766Z,94.50
2017-08-20T21:16:25.184Z,94.80
2017-08-20T21:18:53.518Z,95.20
2017-08-20T21:21:22.567Z,94.40
2017-08-20T21:23:50.843Z,94.30
2017-08-20T21:26:19.167Z,94.00
2017-08-20T21:28:47.459Z,93.90
2017-08-20T21:36:15.964Z,95.00
2017-08-20T21:38:44.257Z,95.40
2017-08-20T21:41:13.146Z,94.70
2017-08-20T21:43:42.274Z,95.20
2017-08-20T21:46:10.967Z,95.10
2017-08-20T21:48:39.309Z,94.90
2017-08-20T21:51:07.988Z,94.50
2017-08-20T21:53:36.271Z,94.40
2017-08-20T21:56:04.627Z,94.50
2017-08-20T21:58:32.915Z,94.20
2017-08-20T22:01:01.208Z,94.30
2017-08-20T22:03:30.706Z,95.00
2017-08-20T22:05:58.995Z,94.70
2017-08-20T22:08:28.787Z,94.80
2017-08-20T22:10:57.539Z,95.20
2017-08-20T22:13:25.844Z,95.30
2017-08-20T22:15:55.667Z,95.80
2017-08-20T22:18:24.023Z,95.10
2017-08-20T22:20:53.076Z,94.80
2017-08-20T22:23:21.380Z,94.80
2017-08-20T22:28:20.771Z,94.50
2017-08-20T22:30:49.474Z,94.80
2017-08-20T22:33:18.579Z,94.80
2017-08-20T22:36:19.539Z,94.50
2017-08-20T22:38:47.871Z,94.20
2017-08-20T22:41:16.157Z,94.70
2017-08-20T22:43:44.460Z,95.10
2017-08-20T22:46:12.812Z,95.00
2017-08-20T22:48:42.497Z,95.40
2017-08-20T22:51:10.816Z,95.80
2017-08-20T22:53:39.554Z,95.80
2017-08-20T22:56:07.850Z,95.20
2017-08-20T22:58:36.518Z,95.00
2017-08-20T23:01:05.228Z,95.60
2017-08-20T23:03:35.027Z,95.70
2017-08-20T23:06:03.311Z,96.10
2017-08-20T23:08:31.646Z,96.50
2017-08-20T23:10:59.932Z,95.90
2017-08-20T23:13:28.227Z,95.70
2017-08-20T23:15:57.318Z,96.00
2017-08-20T23:18:25.599Z,96.50
2017-08-20T23:20:53.889Z,95.60
2017-08-20T23:23:22.239Z,95.40
2017-08-20T23:25:52.026Z,95.80
2017-08-20T23:28:20.748Z,96.10
2017-08-20T23:30:49.147Z,95.50
2017-08-20T23:33:18.934Z,96.00
2017-08-20T23:35:47.223Z,96.20
2017-08-20T23:38:15.567Z,96.10
2017-08-20T23:43:14.516Z,96.30
2017-08-20T23:45:43.257Z,96.10
2017-08-20T23:48:13.074Z,96.10
2017-08-20T23:50:41.831Z,95.90
2017-08-20T23:53:11.316Z,95.60
2017-08-20T23:55:39.603Z,95.80
